sensor_id;sensor_type;location;lat;lon;timestamp;P1;durP1;ratioP1;P2;durP2;ratioP2
41677;SDS011;27364;49.026;8.712;2023-01-30T00:01:32;22.65;;;16.23;;
41677;SDS011;27364;49.026;8.712;2023-01-30T00:03:58;23.83;;;16.67;;
41677;SDS011;27364;49.026;8.712;2023-01-30T00:06:24;25.27;;;16.45;;
41677;SDS011;27364;49.026;8.712;2023-01-30T00:08:50;24.13;;;17.35;;
41677;SDS011;27364;49.026;8.712;2023-01-30T00:11:16;23.67;;;16.80;;
41677;SDS011;27364;49.026;8.712;2023-01-30T00:13:43;24.50;;;16.90;;
41677;SDS011;27364;49.026;8.712;2023-01-30T00:16:10;24.33;;;17.35;;
41677;SDS011;27364;49.026;8.712;2023-01-30T00:18:37;25.50;;;18.05;;
41677;SDS011;27364;49.026;8.712;2023-01-30T00:21:04;22.90;;;17.67;;
41677;SDS011;27364;49.026;8.712;2023-01-30T00:23:32;25.92;;;18.90;;
41677;SDS011;27364;49.026;8.712;2023-01-30T00:25:59;25.45;;;19.23;;
41677;SDS011;27364;49.026;8.712;2023-01-30T00:28:24;25.35;;;18.48;;
41677;SDS011;27364;49.026;8.712;2023-01-30T00:30:50;26.85;;;19.23;;
41677;SDS011;27364;49.026;8.712;2023-01-30T00:33:18;26.55;;;19.23;;
41677;SDS011;27364;49.026;8.712;2023-01-30T00:35:45;27.20;;;19.25;;
41677;SDS011;27364;49.026;8.712;2023-01-30T00:38:12;29.20;;;19.38;;
41677;SDS011;27364;49.026;8.712;2023-01-30T00:40:37;27.58;;;20.20;;
41677;SDS011;27364;49.026;8.712;2023-01-30T00:43:03;25.77;;;19.77;;
41677;SDS011;27364;49.026;8.712;2023-01-30T00:45:48;29.58;;;20.73;;
41677;SDS011;27364;49.026;8.712;2023-01-30T00:48:34;31.58;;;21.45;;
41677;SDS011;27364;49.026;8.712;2023-01-30T00:51:00;28.33;;;21.17;;
41677;SDS011;27364;49.026;8.712;2023-01-30T00:53:25;31.70;;;21.98;;
41677;SDS011;27364;49.026;8.712;2023-01-30T00:55:51;30.00;;;21.40;;
41677;SDS011;27364;49.026;8.712;2023-01-30T00:58:18;32.35;;;23.45;;
41677;SDS011;27364;49.026;8.712;2023-01-30T01:00:43;30.98;;;22.45;;
41677;SDS011;27364;49.026;8.712;2023-01-30T01:03:09;31.35;;;23.05;;
41677;SDS011;27364;49.026;8.712;2023-01-30T01:05:34;31.85;;;21.88;;
41677;SDS011;27364;49.026;8.712;2023-01-30T01:08:00;30.38;;;22.27;;
41677;SDS011;27364;49.026;8.712;2023-01-30T01:10:26;32.80;;;22.50;;
41677;SDS011;27364;49.026;8.712;2023-01-30T01:12:51;36.30;;;23.98;;
41677;SDS011;27364;49.026;8.712;2023-01-30T01:15:17;32.47;;;23.55;;
41677;SDS011;27364;49.026;8.712;2023-01-30T01:17:43;35.20;;;24.15;;
41677;SDS011;27364;49.026;8.712;2023-01-30T01:20:09;33.65;;;23.48;;
41677;SDS011;27364;49.026;8.712;2023-01-30T01:22:35;31.15;;;22.75;;
41677;SDS011;27364;49.026;8.712;2023-01-30T01:25:01;32.88;;;23.33;;
41677;SDS011;27364;49.026;8.712;2023-01-30T01:27:27;33.50;;;23.92;;
41677;SDS011;27364;49.026;8.712;2023-01-30T01:29:53;35.47;;;23.95;;
41677;SDS011;27364;49.026;8.712;2023-01-30T01:32:19;33.85;;;23.50;;
41677;SDS011;27364;49.026;8.712;2023-01-30T01:34:45;34.53;;;23.23;;
41677;SDS011;27364;49.026;8.712;2023-01-30T01:37:11;34.88;;;23.42;;
41677;SDS011;27364;49.026;8.712;2023-01-30T01:39:36;30.65;;;22.40;;
41677;SDS011;27364;49.026;8.712;2023-01-30T01:42:21;33.75;;;22.83;;
41677;SDS011;27364;49.026;8.712;2023-01-30T01:47:33;34.05;;;23.23;;
41677;SDS011;27364;49.026;8.712;2023-01-30T01:49:59;32.42;;;23.23;;
41677;SDS011;27364;49.026;8.712;2023-01-30T01:52:26;32.45;;;22.33;;
41677;SDS011;27364;49.026;8.712;2023-01-30T01:54:53;33.05;;;21.92;;
41677;SDS011;27364;49.026;8.712;2023-01-30T01:59:51;29.60;;;20.50;;
41677;SDS011;27364;49.026;8.712;2023-01-30T02:02:39;29.70;;;19.60;;
41677;SDS011;27364;49.026;8.712;2023-01-30T02:05:15;29.52;;;19.33;;
41677;SDS011;27364;49.026;8.712;2023-01-30T02:10:15;28.58;;;20.25;;
41677;SDS011;27364;49.026;8.712;2023-01-30T02:12:44;28.10;;;19.92;;
41677;SDS011;27364;49.026;8.712;2023-01-30T02:15:10;31.45;;;21.25;;
41677;SDS011;27364;49.026;8.712;2023-01-30T02:17:36;30.50;;;20.75;;
41677;SDS011;27364;49.026;8.712;2023-01-30T02:20:10;29.85;;;19.85;;
41677;SDS011;27364;49.026;8.712;2023-01-30T02:31:13;29.40;;;21.27;;
41677;SDS011;27364;49.026;8.712;2023-01-30T02:33:49;30.33;;;21.40;;
41677;SDS011;27364;49.026;8.712;2023-01-30T02:42:04;26.55;;;19.20;;
41677;SDS011;27364;49.026;8.712;2023-01-30T02:44:55;27.38;;;18.45;;
41677;SDS011;27364;49.026;8.712;2023-01-30T02:47:31;28.48;;;18.80;;
41677;SDS011;27364;49.026;8.712;2023-01-30T02:49:59;29.73;;;20.10;;
41677;SDS011;27364;49.026;8.712;2023-01-30T02:52:53;28.13;;;19.10;;
41677;SDS011;27364;49.026;8.712;2023-01-30T02:55:21;25.55;;;19.08;;
41677;SDS011;27364;49.026;8.712;2023-01-30T02:57:51;27.23;;;19.33;;
41677;SDS011;27364;49.026;8.712;2023-01-30T03:00:31;29.45;;;19.23;;
41677;SDS011;27364;49.026;8.712;2023-01-30T03:05:36;26.05;;;18.35;;
41677;SDS011;27364;49.026;8.712;2023-01-30T03:11:01;25.00;;;17.27;;
41677;SDS011;27364;49.026;8.712;2023-01-30T03:13:43;23.55;;;17.52;;
41677;SDS011;27364;49.026;8.712;2023-01-30T03:18:55;25.90;;;16.73;;
41677;SDS011;27364;49.026;8.712;2023-01-30T03:21:24;23.15;;;16.65;;
41677;SDS011;27364;49.026;8.712;2023-01-30T03:23:50;24.10;;;16.77;;
41677;SDS011;27364;49.026;8.712;2023-01-30T03:26:17;23.08;;;15.60;;
41677;SDS011;27364;49.026;8.712;2023-01-30T03:28:47;20.50;;;15.40;;
41677;SDS011;27364;49.026;8.712;2023-01-30T03:31:14;22.92;;;16.65;;
41677;SDS011;27364;49.026;8.712;2023-01-30T03:33:40;20.40;;;15.05;;
41677;SDS011;27364;49.026;8.712;2023-01-30T03:36:06;20.00;;;14.63;;
41677;SDS011;27364;49.026;8.712;2023-01-30T03:38:33;23.02;;;15.02;;
41677;SDS011;27364;49.026;8.712;2023-01-30T03:40:59;20.48;;;15.32;;
41677;SDS011;27364;49.026;8.712;2023-01-30T03:43:25;21.00;;;15.27;;
41677;SDS011;27364;49.026;8.712;2023-01-30T03:45:50;19.70;;;14.63;;
41677;SDS011;27364;49.026;8.712;2023-01-30T03:48:16;19.20;;;14.50;;
41677;SDS011;27364;49.026;8.712;2023-01-30T03:50:42;21.88;;;14.82;;
41677;SDS011;27364;49.026;8.712;2023-01-30T03:53:07;18.55;;;13.68;;
41677;SDS011;27364;49.026;8.712;2023-01-30T03:55:33;18.98;;;14.23;;
41677;SDS011;27364;49.026;8.712;2023-01-30T03:57:58;20.15;;;14.75;;
41677;SDS011;27364;49.026;8.712;2023-01-30T04:00:24;20.30;;;14.52;;
41677;SDS011;27364;49.026;8.712;2023-01-30T04:02:49;19.40;;;14.13;;
41677;SDS011;27364;49.026;8.712;2023-01-30T04:05:15;19.23;;;14.27;;
41677;SDS011;27364;49.026;8.712;2023-01-30T04:07:41;19.08;;;14.20;;
41677;SDS011;27364;49.026;8.712;2023-01-30T04:10:06;17.75;;;12.98;;
41677;SDS011;27364;49.026;8.712;2023-01-30T04:12:32;20.73;;;14.18;;
41677;SDS011;27364;49.026;8.712;2023-01-30T04:14:58;20.70;;;15.35;;
41677;SDS011;27364;49.026;8.712;2023-01-30T04:17:23;21.25;;;14.90;;
41677;SDS011;27364;49.026;8.712;2023-01-30T04:19:49;18.63;;;14.13;;
41677;SDS011;27364;49.026;8.712;2023-01-30T04:22:14;19.90;;;14.63;;
41677;SDS011;27364;49.026;8.712;2023-01-30T04:24:40;19.33;;;14.48;;
41677;SDS011;27364;49.026;8.712;2023-01-30T04:27:05;19.35;;;13.80;;
41677;SDS011;27364;49.026;8.712;2023-01-30T04:29:31;16.55;;;12.27;;
41677;SDS011;27364;49.026;8.712;2023-01-30T04:31:56;16.83;;;12.00;;
41677;SDS011;27364;49.026;8.712;2023-01-30T04:34:22;17.83;;;12.02;;
41677;SDS011;27364;49.026;8.712;2023-01-30T04:36:47;15.88;;;11.57;;
41677;SDS011;27364;49.026;8.712;2023-01-30T04:39:13;15.82;;;11.57;;
41677;SDS011;27364;49.026;8.712;2023-01-30T04:41:38;15.68;;;11.30;;
41677;SDS011;27364;49.026;8.712;2023-01-30T04:44:04;15.13;;;10.93;;
41677;SDS011;27364;49.026;8.712;2023-01-30T04:46:30;14.48;;;10.25;;
41677;SDS011;27364;49.026;8.712;2023-01-30T04:48:55;14.98;;;10.43;;
41677;SDS011;27364;49.026;8.712;2023-01-30T04:51:21;14.32;;;10.25;;
41677;SDS011;27364;49.026;8.712;2023-01-30T04:53:46;14.93;;;10.80;;
41677;SDS011;27364;49.026;8.712;2023-01-30T04:56:12;14.80;;;10.98;;
41677;SDS011;27364;49.026;8.712;2023-01-30T04:58:37;16.42;;;11.27;;
41677;SDS011;27364;49.026;8.712;2023-01-30T05:01:13;18.33;;;10.73;;
41677;SDS011;27364;49.026;8.712;2023-01-30T05:03:53;15.38;;;10.80;;
41677;SDS011;27364;49.026;8.712;2023-01-30T05:06:19;15.82;;;11.00;;
41677;SDS011;27364;49.026;8.712;2023-01-30T05:08:53;16.90;;;11.63;;
41677;SDS011;27364;49.026;8.712;2023-01-30T05:11:20;17.45;;;12.00;;
41677;SDS011;27364;49.026;8.712;2023-01-30T05:13:47;15.63;;;11.60;;
41677;SDS011;27364;49.026;8.712;2023-01-30T05:16:13;16.60;;;12.27;;
41677;SDS011;27364;49.026;8.712;2023-01-30T05:18:39;15.45;;;11.38;;
41677;SDS011;27364;49.026;8.712;2023-01-30T05:21:06;19.27;;;13.48;;
41677;SDS011;27364;49.026;8.712;2023-01-30T05:23:33;22.77;;;12.73;;
41677;SDS011;27364;49.026;8.712;2023-01-30T05:25:59;16.90;;;12.82;;
41677;SDS011;27364;49.026;8.712;2023-01-30T05:28:26;17.10;;;11.88;;
41677;SDS011;27364;49.026;8.712;2023-01-30T05:30:51;16.85;;;12.20;;
41677;SDS011;27364;49.026;8.712;2023-01-30T05:33:17;16.77;;;12.10;;
41677;SDS011;27364;49.026;8.712;2023-01-30T05:35:49;16.67;;;12.50;;
41677;SDS011;27364;49.026;8.712;2023-01-30T05:38:14;16.17;;;12.00;;
41677;SDS011;27364;49.026;8.712;2023-01-30T05:40:40;18.40;;;11.90;;
41677;SDS011;27364;49.026;8.712;2023-01-30T05:43:06;17.48;;;11.63;;
41677;SDS011;27364;49.026;8.712;2023-01-30T05:45:32;17.88;;;11.68;;
41677;SDS011;27364;49.026;8.712;2023-01-30T05:47:57;16.35;;;11.10;;
41677;SDS011;27364;49.026;8.712;2023-01-30T05:50:23;15.18;;;11.30;;
41677;SDS011;27364;49.026;8.712;2023-01-30T05:52:48;15.30;;;10.70;;
41677;SDS011;27364;49.026;8.712;2023-01-30T05:55:14;14.10;;;10.32;;
41677;SDS011;27364;49.026;8.712;2023-01-30T05:57:39;14.80;;;9.88;;
41677;SDS011;27364;49.026;8.712;2023-01-30T06:00:05;15.38;;;10.05;;
41677;SDS011;27364;49.026;8.712;2023-01-30T06:02:31;14.60;;;9.75;;
41677;SDS011;27364;49.026;8.712;2023-01-30T06:04:57;14.52;;;9.75;;
41677;SDS011;27364;49.026;8.712;2023-01-30T06:07:22;14.05;;;10.10;;
41677;SDS011;27364;49.026;8.712;2023-01-30T06:09:48;13.32;;;9.75;;
41677;SDS011;27364;49.026;8.712;2023-01-30T06:12:13;14.02;;;9.95;;
41677;SDS011;27364;49.026;8.712;2023-01-30T06:14:39;14.45;;;9.75;;
41677;SDS011;27364;49.026;8.712;2023-01-30T06:17:05;13.73;;;9.82;;
41677;SDS011;27364;49.026;8.712;2023-01-30T06:19:30;14.52;;;9.90;;
41677;SDS011;27364;49.026;8.712;2023-01-30T06:21:58;12.00;;;9.40;;
41677;SDS011;27364;49.026;8.712;2023-01-30T06:24:24;14.68;;;9.55;;
41677;SDS011;27364;49.026;8.712;2023-01-30T06:26:49;12.52;;;9.15;;
41677;SDS011;27364;49.026;8.712;2023-01-30T06:29:15;15.52;;;9.18;;
41677;SDS011;27364;49.026;8.712;2023-01-30T06:31:40;14.05;;;9.43;;
41677;SDS011;27364;49.026;8.712;2023-01-30T06:34:06;13.77;;;9.60;;
41677;SDS011;27364;49.026;8.712;2023-01-30T06:36:32;13.02;;;9.50;;
41677;SDS011;27364;49.026;8.712;2023-01-30T06:38:57;14.07;;;9.50;;
41677;SDS011;27364;49.026;8.712;2023-01-30T06:41:23;12.35;;;9.48;;
41677;SDS011;27364;49.026;8.712;2023-01-30T06:43:48;13.48;;;9.95;;
41677;SDS011;27364;49.026;8.712;2023-01-30T06:46:14;14.68;;;9.60;;
41677;SDS011;27364;49.026;8.712;2023-01-30T06:48:39;14.73;;;9.90;;
41677;SDS011;27364;49.026;8.712;2023-01-30T06:51:05;16.13;;;9.98;;
41677;SDS011;27364;49.026;8.712;2023-01-30T06:53:31;12.63;;;9.77;;
41677;SDS011;27364;49.026;8.712;2023-01-30T06:56:00;16.27;;;10.20;;
41677;SDS011;27364;49.026;8.712;2023-01-30T06:58:25;14.50;;;10.15;;
41677;SDS011;27364;49.026;8.712;2023-01-30T07:00:51;14.18;;;10.25;;
41677;SDS011;27364;49.026;8.712;2023-01-30T07:03:17;14.60;;;10.15;;
41677;SDS011;27364;49.026;8.712;2023-01-30T07:05:43;14.75;;;10.35;;
41677;SDS011;27364;49.026;8.712;2023-01-30T07:08:10;12.63;;;9.52;;
41677;SDS011;27364;49.026;8.712;2023-01-30T07:10:36;14.50;;;10.48;;
41677;SDS011;27364;49.026;8.712;2023-01-30T07:13:03;13.48;;;10.13;;
41677;SDS011;27364;49.026;8.712;2023-01-30T07:15:29;13.45;;;10.65;;
41677;SDS011;27364;49.026;8.712;2023-01-30T07:17:56;13.38;;;9.90;;
41677;SDS011;27364;49.026;8.712;2023-01-30T07:20:22;12.15;;;9.18;;
41677;SDS011;27364;49.026;8.712;2023-01-30T07:22:48;14.57;;;9.73;;
41677;SDS011;27364;49.026;8.712;2023-01-30T07:25:15;9.70;;;7.43;;
41677;SDS011;27364;49.026;8.712;2023-01-30T10:08:34;8.20;;;5.57;;
41677;SDS011;27364;49.026;8.712;2023-01-30T10:11:09;8.07;;;5.63;;
41677;SDS011;27364;49.026;8.712;2023-01-30T10:27:18;7.40;;;5.40;;
41677;SDS011;27364;49.026;8.712;2023-01-30T10:29:50;8.30;;;5.80;;
41677;SDS011;27364;49.026;8.712;2023-01-30T10:32:25;9.65;;;6.05;;
41677;SDS011;27364;49.026;8.712;2023-01-30T10:34:56;7.50;;;5.53;;
41677;SDS011;27364;49.026;8.712;2023-01-30T14:35:34;15.02;;;10.90;;
41677;SDS011;27364;49.026;8.712;2023-01-30T14:38:13;16.42;;;10.40;;
41677;SDS011;27364;49.026;8.712;2023-01-30T14:40:42;15.05;;;11.02;;
41677;SDS011;27364;49.026;8.712;2023-01-30T14:45:47;14.38;;;10.77;;
41677;SDS011;27364;49.026;8.712;2023-01-30T14:48:28;15.05;;;10.10;;
41677;SDS011;27364;49.026;8.712;2023-01-30T14:56:39;14.95;;;10.27;;
41677;SDS011;27364;49.026;8.712;2023-01-30T15:07:17;15.40;;;10.05;;
41677;SDS011;27364;49.026;8.712;2023-01-30T15:09:50;17.48;;;10.15;;
41677;SDS011;27364;49.026;8.712;2023-01-30T15:17:37;14.88;;;10.02;;
41677;SDS011;27364;49.026;8.712;2023-01-30T15:25:51;13.45;;;9.15;;
41677;SDS011;27364;49.026;8.712;2023-01-30T15:31:35;13.13;;;8.85;;
41677;SDS011;27364;49.026;8.712;2023-01-30T15:34:00;13.20;;;9.13;;
41677;SDS011;27364;49.026;8.712;2023-01-30T15:36:30;15.55;;;10.77;;
41677;SDS011;27364;49.026;8.712;2023-01-30T15:38:58;11.70;;;8.15;;
41677;SDS011;27364;49.026;8.712;2023-01-30T15:41:26;13.57;;;9.23;;
41677;SDS011;27364;49.026;8.712;2023-01-30T15:46:38;11.77;;;8.50;;
41677;SDS011;27364;49.026;8.712;2023-01-30T15:51:46;12.70;;;8.63;;
41677;SDS011;27364;49.026;8.712;2023-01-30T15:54:16;11.77;;;7.97;;
41677;SDS011;27364;49.026;8.712;2023-01-30T15:56:44;13.95;;;8.68;;
41677;SDS011;27364;49.026;8.712;2023-01-30T15:59:19;18.77;;;9.70;;
41677;SDS011;27364;49.026;8.712;2023-01-30T16:01:57;13.80;;;8.88;;
41677;SDS011;27364;49.026;8.712;2023-01-30T16:04:32;13.15;;;8.82;;
41677;SDS011;27364;49.026;8.712;2023-01-30T16:06:58;21.67;;;12.15;;
41677;SDS011;27364;49.026;8.712;2023-01-30T16:09:24;13.70;;;9.35;;
41677;SDS011;27364;49.026;8.712;2023-01-30T16:11:50;11.27;;;7.97;;
41677;SDS011;27364;49.026;8.712;2023-01-30T16:14:16;12.57;;;8.95;;
41677;SDS011;27364;49.026;8.712;2023-01-30T16:19:10;12.65;;;9.00;;
41677;SDS011;27364;49.026;8.712;2023-01-30T16:21:44;11.98;;;8.82;;
41677;SDS011;27364;49.026;8.712;2023-01-30T16:26:35;13.10;;;9.07;;
41677;SDS011;27364;49.026;8.712;2023-01-30T16:29:10;11.82;;;8.38;;
41677;SDS011;27364;49.026;8.712;2023-01-30T16:31:40;13.25;;;8.95;;
41677;SDS011;27364;49.026;8.712;2023-01-30T16:34:21;12.65;;;8.13;;
41677;SDS011;27364;49.026;8.712;2023-01-30T16:36:49;11.82;;;7.80;;
41677;SDS011;27364;49.026;8.712;2023-01-30T16:39:26;12.68;;;8.80;;
41677;SDS011;27364;49.026;8.712;2023-01-30T16:41:54;15.68;;;8.63;;
41677;SDS011;27364;49.026;8.712;2023-01-30T16:44:22;13.55;;;9.55;;
41677;SDS011;27364;49.026;8.712;2023-01-30T16:46:49;15.57;;;9.70;;
41677;SDS011;27364;49.026;8.712;2023-01-30T16:49:19;13.52;;;9.07;;
41677;SDS011;27364;49.026;8.712;2023-01-30T16:51:47;15.90;;;11.15;;
41677;SDS011;27364;49.026;8.712;2023-01-30T16:54:20;14.93;;;11.45;;
41677;SDS011;27364;49.026;8.712;2023-01-30T16:56:53;13.73;;;9.73;;
41677;SDS011;27364;49.026;8.712;2023-01-30T16:59:21;14.05;;;9.25;;
41677;SDS011;27364;49.026;8.712;2023-01-30T17:01:54;12.02;;;8.75;;
41677;SDS011;27364;49.026;8.712;2023-01-30T17:04:21;13.07;;;8.60;;
41677;SDS011;27364;49.026;8.712;2023-01-30T17:06:53;11.25;;;9.05;;
41677;SDS011;27364;49.026;8.712;2023-01-30T17:09:42;14.68;;;9.30;;
41677;SDS011;27364;49.026;8.712;2023-01-30T17:15:23;14.02;;;10.10;;
41677;SDS011;27364;49.026;8.712;2023-01-30T17:17:43;12.15;;;8.60;;
41677;SDS011;27364;49.026;8.712;2023-01-30T17:20:10;14.98;;;10.88;;
41677;SDS011;27364;49.026;8.712;2023-01-30T17:22:37;12.70;;;9.82;;
41677;SDS011;27364;49.026;8.712;2023-01-30T17:25:13;12.90;;;9.73;;
41677;SDS011;27364;49.026;8.712;2023-01-30T17:27:48;11.20;;;8.10;;
41677;SDS011;27364;49.026;8.712;2023-01-30T17:30:15;12.93;;;9.30;;
41677;SDS011;27364;49.026;8.712;2023-01-30T17:32:42;13.48;;;8.57;;
41677;SDS011;27364;49.026;8.712;2023-01-30T17:35:07;14.38;;;9.85;;
41677;SDS011;27364;49.026;8.712;2023-01-30T17:37:33;13.45;;;9.70;;
41677;SDS011;27364;49.026;8.712;2023-01-30T17:39:59;14.00;;;9.25;;
41677;SDS011;27364;49.026;8.712;2023-01-30T17:42:25;17.48;;;9.65;;
41677;SDS011;27364;49.026;8.712;2023-01-30T17:44:50;13.65;;;10.07;;
41677;SDS011;27364;49.026;8.712;2023-01-30T17:47:16;14.20;;;10.20;;
41677;SDS011;27364;49.026;8.712;2023-01-30T17:49:42;14.63;;;10.70;;
41677;SDS011;27364;49.026;8.712;2023-01-30T17:52:07;13.50;;;9.77;;
41677;SDS011;27364;49.026;8.712;2023-01-30T17:54:34;14.05;;;10.05;;
41677;SDS011;27364;49.026;8.712;2023-01-30T17:57:00;14.68;;;10.70;;
41677;SDS011;27364;49.026;8.712;2023-01-30T17:59:30;13.25;;;10.25;;
41677;SDS011;27364;49.026;8.712;2023-01-30T18:01:56;14.70;;;10.40;;
41677;SDS011;27364;49.026;8.712;2023-01-30T18:04:23;14.45;;;10.45;;
41677;SDS011;27364;49.026;8.712;2023-01-30T18:06:49;15.30;;;10.98;;
41677;SDS011;27364;49.026;8.712;2023-01-30T18:09:19;13.25;;;10.00;;
41677;SDS011;27364;49.026;8.712;2023-01-30T18:11:46;12.30;;;9.77;;
41677;SDS011;27364;49.026;8.712;2023-01-30T18:14:12;14.13;;;9.82;;
41677;SDS011;27364;49.026;8.712;2023-01-30T18:16:38;14.15;;;10.63;;
41677;SDS011;27364;49.026;8.712;2023-01-30T18:19:05;13.73;;;10.05;;
41677;SDS011;27364;49.026;8.712;2023-01-30T18:21:33;13.88;;;10.20;;
41677;SDS011;27364;49.026;8.712;2023-01-30T18:24:00;13.97;;;10.63;;
41677;SDS011;27364;49.026;8.712;2023-01-30T18:26:26;14.77;;;11.23;;
41677;SDS011;27364;49.026;8.712;2023-01-30T18:28:53;14.40;;;10.20;;
41677;SDS011;27364;49.026;8.712;2023-01-30T18:31:19;15.38;;;10.85;;
41677;SDS011;27364;49.026;8.712;2023-01-30T18:33:48;13.57;;;10.65;;
41677;SDS011;27364;49.026;8.712;2023-01-30T18:36:15;13.73;;;10.77;;
41677;SDS011;27364;49.026;8.712;2023-01-30T18:39:10;15.50;;;11.02;;
41677;SDS011;27364;49.026;8.712;2023-01-30T18:41:36;17.95;;;11.73;;
41677;SDS011;27364;49.026;8.712;2023-01-30T18:44:03;15.65;;;12.07;;
41677;SDS011;27364;49.026;8.712;2023-01-30T18:46:30;18.40;;;11.60;;
41677;SDS011;27364;49.026;8.712;2023-01-30T18:48:56;14.80;;;11.38;;
41677;SDS011;27364;49.026;8.712;2023-01-30T18:51:29;15.82;;;10.80;;
41677;SDS011;27364;49.026;8.712;2023-01-30T18:53:56;16.63;;;10.65;;
41677;SDS011;27364;49.026;8.712;2023-01-30T18:56:24;14.48;;;11.07;;
41677;SDS011;27364;49.026;8.712;2023-01-30T18:58:52;15.23;;;10.88;;
41677;SDS011;27364;49.026;8.712;2023-01-30T19:01:23;16.65;;;10.93;;
41677;SDS011;27364;49.026;8.712;2023-01-30T19:03:54;15.75;;;10.82;;
41677;SDS011;27364;49.026;8.712;2023-01-30T19:06:20;13.93;;;10.68;;
41677;SDS011;27364;49.026;8.712;2023-01-30T19:08:46;13.77;;;10.77;;
41677;SDS011;27364;49.026;8.712;2023-01-30T19:11:13;16.67;;;11.40;;
41677;SDS011;27364;49.026;8.712;2023-01-30T19:14:00;14.55;;;10.10;;
41677;SDS011;27364;49.026;8.712;2023-01-30T19:16:26;12.13;;;10.02;;
41677;SDS011;27364;49.026;8.712;2023-01-30T19:18:54;14.27;;;10.50;;
41677;SDS011;27364;49.026;8.712;2023-01-30T19:21:20;14.88;;;10.60;;
41677;SDS011;27364;49.026;8.712;2023-01-30T19:23:47;15.45;;;11.57;;
41677;SDS011;27364;49.026;8.712;2023-01-30T19:26:13;17.23;;;11.00;;
41677;SDS011;27364;49.026;8.712;2023-01-30T19:28:39;20.50;;;11.55;;
41677;SDS011;27364;49.026;8.712;2023-01-30T19:31:14;13.80;;;11.10;;
41677;SDS011;27364;49.026;8.712;2023-01-30T19:34:02;15.50;;;11.13;;
41677;SDS011;27364;49.026;8.712;2023-01-30T19:36:33;15.98;;;11.32;;
41677;SDS011;27364;49.026;8.712;2023-01-30T19:39:01;15.30;;;11.23;;
41677;SDS011;27364;49.026;8.712;2023-01-30T19:41:30;16.60;;;11.20;;
41677;SDS011;27364;49.026;8.712;2023-01-30T19:43:58;19.30;;;11.85;;
41677;SDS011;27364;49.026;8.712;2023-01-30T19:46:24;16.58;;;11.18;;
41677;SDS011;27364;49.026;8.712;2023-01-30T19:48:52;14.82;;;10.57;;
41677;SDS011;27364;49.026;8.712;2023-01-30T19:51:20;15.73;;;10.23;;
41677;SDS011;27364;49.026;8.712;2023-01-30T19:53:51;14.68;;;10.68;;
41677;SDS011;27364;49.026;8.712;2023-01-30T19:56:25;16.13;;;10.57;;
41677;SDS011;27364;49.026;8.712;2023-01-30T19:58:59;15.93;;;10.73;;
41677;SDS011;27364;49.026;8.712;2023-01-30T20:01:28;16.15;;;10.98;;
41677;SDS011;27364;49.026;8.712;2023-01-30T20:03:59;15.85;;;10.60;;
41677;SDS011;27364;49.026;8.712;2023-01-30T20:06:40;19.38;;;11.77;;
41677;SDS011;27364;49.026;8.712;2023-01-30T20:09:10;14.40;;;10.43;;
41677;SDS011;27364;49.026;8.712;2023-01-30T20:11:38;15.60;;;10.95;;
41677;SDS011;27364;49.026;8.712;2023-01-30T20:14:04;14.93;;;10.57;;
41677;SDS011;27364;49.026;8.712;2023-01-30T20:16:38;14.00;;;10.68;;
41677;SDS011;27364;49.026;8.712;2023-01-30T20:19:13;16.75;;;11.30;;
41677;SDS011;27364;49.026;8.712;2023-01-30T20:21:48;15.32;;;11.23;;
41677;SDS011;27364;49.026;8.712;2023-01-30T20:24:16;16.85;;;10.85;;
41677;SDS011;27364;49.026;8.712;2023-01-30T20:26:43;14.38;;;10.88;;
41677;SDS011;27364;49.026;8.712;2023-01-30T20:29:09;14.15;;;10.95;;
41677;SDS011;27364;49.026;8.712;2023-01-30T20:31:35;17.63;;;11.52;;
41677;SDS011;27364;49.026;8.712;2023-01-30T20:34:06;17.10;;;11.93;;
41677;SDS011;27364;49.026;8.712;2023-01-30T20:36:36;17.35;;;12.00;;
41677;SDS011;27364;49.026;8.712;2023-01-30T20:39:02;16.42;;;10.38;;
41677;SDS011;27364;49.026;8.712;2023-01-30T20:41:30;18.00;;;11.85;;
41677;SDS011;27364;49.026;8.712;2023-01-30T20:43:57;16.42;;;11.43;;
41677;SDS011;27364;49.026;8.712;2023-01-30T20:46:24;15.52;;;11.15;;
41677;SDS011;27364;49.026;8.712;2023-01-30T20:48:51;15.32;;;10.68;;
41677;SDS011;27364;49.026;8.712;2023-01-30T20:51:24;15.45;;;10.30;;
41677;SDS011;27364;49.026;8.712;2023-01-30T20:53:58;15.43;;;10.95;;
41677;SDS011;27364;49.026;8.712;2023-01-30T20:56:29;17.27;;;11.98;;
41677;SDS011;27364;49.026;8.712;2023-01-30T20:58:57;14.63;;;10.70;;
41677;SDS011;27364;49.026;8.712;2023-01-30T21:01:22;16.02;;;10.57;;
41677;SDS011;27364;49.026;8.712;2023-01-30T21:03:50;16.20;;;10.70;;
41677;SDS011;27364;49.026;8.712;2023-01-30T21:06:18;13.77;;;10.07;;
41677;SDS011;27364;49.026;8.712;2023-01-30T21:08:45;15.23;;;10.85;;
41677;SDS011;27364;49.026;8.712;2023-01-30T21:11:11;16.13;;;10.73;;
41677;SDS011;27364;49.026;8.712;2023-01-30T21:13:39;17.50;;;11.40;;
41677;SDS011;27364;49.026;8.712;2023-01-30T21:18:38;17.15;;;11.02;;
41677;SDS011;27364;49.026;8.712;2023-01-30T21:21:06;14.32;;;10.05;;
41677;SDS011;27364;49.026;8.712;2023-01-30T21:23:32;18.63;;;10.73;;
41677;SDS011;27364;49.026;8.712;2023-01-30T21:26:04;15.27;;;10.50;;
41677;SDS011;27364;49.026;8.712;2023-01-30T21:28:32;14.45;;;10.60;;
41677;SDS011;27364;49.026;8.712;2023-01-30T21:31:05;17.08;;;10.80;;
41677;SDS011;27364;49.026;8.712;2023-01-30T21:33:32;16.45;;;10.75;;
41677;SDS011;27364;49.026;8.712;2023-01-30T21:35:58;14.70;;;10.85;;
41677;SDS011;27364;49.026;8.712;2023-01-30T21:38:27;16.52;;;11.30;;
41677;SDS011;27364;49.026;8.712;2023-01-30T21:41:18;15.27;;;11.10;;
41677;SDS011;27364;49.026;8.712;2023-01-30T21:44:04;15.63;;;10.55;;
41677;SDS011;27364;49.026;8.712;2023-01-30T21:46:31;19.00;;;11.13;;
41677;SDS011;27364;49.026;8.712;2023-01-30T21:49:00;15.80;;;10.77;;
41677;SDS011;27364;49.026;8.712;2023-01-30T21:51:26;14.80;;;10.77;;
41677;SDS011;27364;49.026;8.712;2023-01-30T21:53:52;14.75;;;10.65;;
41677;SDS011;27364;49.026;8.712;2023-01-30T21:56:21;15.25;;;10.90;;
41677;SDS011;27364;49.026;8.712;2023-01-30T21:58:49;17.77;;;10.35;;
41677;SDS011;27364;49.026;8.712;2023-01-30T22:01:15;15.05;;;11.07;;
41677;SDS011;27364;49.026;8.712;2023-01-30T22:03:41;17.88;;;11.25;;
41677;SDS011;27364;49.026;8.712;2023-01-30T22:06:07;15.35;;;11.45;;
41677;SDS011;27364;49.026;8.712;2023-01-30T22:08:35;17.80;;;10.95;;
41677;SDS011;27364;49.026;8.712;2023-01-30T22:11:08;15.90;;;10.27;;
41677;SDS011;27364;49.026;8.712;2023-01-30T22:13:36;15.63;;;10.90;;
41677;SDS011;27364;49.026;8.712;2023-01-30T22:16:03;16.85;;;10.85;;
41677;SDS011;27364;49.026;8.712;2023-01-30T22:18:35;17.27;;;11.07;;
41677;SDS011;27364;49.026;8.712;2023-01-30T22:23:33;16.98;;;11.63;;
41677;SDS011;27364;49.026;8.712;2023-01-30T22:26:00;15.63;;;11.63;;
41677;SDS011;27364;49.026;8.712;2023-01-30T22:28:26;19.70;;;12.25;;
41677;SDS011;27364;49.026;8.712;2023-01-30T22:30:58;17.05;;;11.35;;
41677;SDS011;27364;49.026;8.712;2023-01-30T22:33:37;22.42;;;11.25;;
41677;SDS011;27364;49.026;8.712;2023-01-30T22:36:03;17.10;;;11.45;;
41677;SDS011;27364;49.026;8.712;2023-01-30T22:38:31;18.08;;;10.98;;
41677;SDS011;27364;49.026;8.712;2023-01-30T22:43:36;17.92;;;11.05;;
41677;SDS011;27364;49.026;8.712;2023-01-30T22:46:07;14.75;;;10.00;;